Time;durP1;ratioP1;P1;durP2;ratioP2;P2;SDS_P1;SDS_P2;PMS_P1;PMS_P2;Temp;Humidity;BMP_temperature;BMP_pressure;BME280_temperature;BME280_humidity;BME280_pressure;Samples;Min_cycle;Max_cycle;Signal;HPM_P1;HPM_P2
2022/06/03 00:00:22;;;;;;;10.73;7.50;;;13.40;92.10;;;;;;5009948;28;20388;-81
2022/06/03 00:03:08;;;;;;;3.25;2.28;;;13.30;92.50;;;;;;5009620;28;20025;-82
2022/06/03 00:05:46;;;;;;;4.10;1.58;;;13.30;93.10;;;;;;4995970;28;20041;-82
2022/06/03 00:08:37;;;;;;;1.95;1.23;;;13.30;93.60;;;;;;5024374;28;20041;-83
2022/06/03 00:11:40;;;;;;;2.25;1.27;;;13.30;94.10;;;;;;5025739;28;20490;-83
2022/06/03 00:14:37;;;;;;;2.17;1.30;;;13.30;94.80;;;;;;5043643;28;20024;-82
2022/06/03 00:17:24;;;;;;;3.13;1.08;;;13.30;95.40;;;;;;5006811;28;20029;-82
2022/06/03 00:20:09;;;;;;;3.08;1.73;;;13.30;95.90;;;;;;5027332;28;20688;-83
2022/06/03 00:23:00;;;;;;;2.45;1.35;;;13.30;96.30;;;;;;5007719;28;20044;-83
2022/06/03 00:25:35;;;;;;;2.65;1.33;;;13.30;96.90;;;;;;5008217;28;20056;-82
2022/06/03 00:28:23;;;;;;;2.85;1.98;;;13.30;97.20;;;;;;5018604;28;20029;-82
2022/06/03 00:31:08;;;;;;;3.00;1.58;;;13.30;97.70;;;;;;5011873;28;20032;-81
2022/06/03 00:33:44;;;;;;;4.50;1.33;;;13.30;97.90;;;;;;5022602;28;20609;-82
2022/06/03 00:36:19;;;;;;;4.22;1.42;;;13.30;98.30;;;;;;5024751;28;20381;-82
2022/06/03 00:38:57;;;;;;;2.30;1.10;;;13.30;98.50;;;;;;5006487;28;20041;-83
2022/06/03 00:41:33;;;;;;;3.22;2.63;;;13.20;99.00;;;;;;5009486;28;20037;-82
2022/06/03 00:44:44;;;;;;;2.88;1.40;;;13.20;99.40;;;;;;5009883;28;20468;-82
2022/06/03 00:47:35;;;;;;;4.00;1.63;;;13.20;99.80;;;;;;5014471;28;20056;-83
2022/06/03 00:50:12;;;;;;;1.98;1.00;;;13.20;99.90;;;;;;5011228;28;20025;-83
2022/06/03 00:53:12;;;;;;;1.65;0.98;;;13.20;99.90;;;;;;5025524;28;20483;-82
2022/06/03 00:56:16;;;;;;;1.60;0.98;;;13.10;99.90;;;;;;5025276;28;20494;-82
2022/06/03 00:59:06;;;;;;;3.58;1.45;;;13.10;99.90;;;;;;4962979;28;20050;-82
2022/06/03 01:01:48;;;;;;;2.38;1.58;;;13.10;99.90;;;;;;5021040;28;20441;-82
2022/06/03 01:04:24;;;;;;;3.13;1.70;;;13.00;99.90;;;;;;5028709;28;20037;-82
2022/06/03 01:07:00;;;;;;;2.50;1.25;;;13.00;99.90;;;;;;5036722;28;20033;-82
2022/06/03 01:10:04;;;;;;;1.63;1.25;;;13.10;99.90;;;;;;4975572;28;20033;-82
2022/06/03 01:13:05;;;;;;;2.03;1.63;;;13.00;99.90;;;;;;4985965;28;20028;-82
2022/06/03 01:15:54;;;;;;;4.05;1.33;;;13.00;99.90;;;;;;4991393;28;20037;-81
2022/06/03 01:18:40;;;;;;;2.85;1.80;;;13.00;99.90;;;;;;4984621;28;20487;-81
2022/06/03 01:21:12;;;;;;;2.78;1.35;;;12.90;99.90;;;;;;5022605;28;20022;-82
2022/06/03 01:23:57;;;;;;;2.17;1.10;;;12.90;99.90;;;;;;5006661;28;20030;-82
2022/06/03 01:26:35;;;;;;;2.40;1.35;;;12.90;99.90;;;;;;4994009;28;20377;-82
2022/06/03 01:29:31;;;;;;;2.10;1.30;;;12.90;99.90;;;;;;5003999;28;20365;-82
2022/06/03 01:32:53;;;;;;;3.67;1.33;;;12.90;99.90;;;;;;5039580;28;20018;-82
2022/06/03 01:35:53;;;;;;;4.22;2.08;;;12.90;99.90;;;;;;4963647;28;20019;-82
2022/06/03 01:38:38;;;;;;;2.47;1.55;;;12.80;99.90;;;;;;5016578;28;20060;-82
2022/06/03 01:41:14;;;;;;;4.40;1.25;;;12.90;99.90;;;;;;5006448;28;20025;-82
2022/06/03 01:43:52;;;;;;;2.70;1.60;;;12.90;99.90;;;;;;4978417;28;20030;-82
2022/06/03 01:46:25;;;;;;;2.05;1.85;;;12.90;99.90;;;;;;5005510;28;20037;-81
2022/06/03 01:48:51;;;;;;;;;;;12.90;99.90;;;;;;4985173;28;20026;-82
2022/06/03 01:51:43;;;;;;;2.20;1.10;;;12.90;99.90;;;;;;5021508;28;19917;-82
2022/06/03 01:54:47;;;;;;;6.13;1.83;;;12.90;99.90;;;;;;5021681;28;20604;-82
2022/06/03 01:57:24;;;;;;;2.17;1.40;;;12.90;99.90;;;;;;4976122;28;20672;-82
2022/06/03 01:59:50;;;;;;;2.15;1.42;;;12.90;99.90;;;;;;4975896;28;20052;-83
2022/06/03 02:02:29;;;;;;;3.30;1.20;;;12.90;99.90;;;;;;5019645;28;21562;-83
2022/06/03 02:05:22;;;;;;;3.25;1.80;;;13.00;99.90;;;;;;5021153;28;20029;-83
2022/06/03 02:08:27;;;;;;;6.05;1.88;;;13.00;99.90;;;;;;5039530;28;20032;-83
2022/06/03 02:11:24;;;;;;;2.55;1.50;;;13.00;99.90;;;;;;4985490;28;20033;-83
2022/06/03 02:14:03;;;;;;;3.05;2.20;;;13.00;99.90;;;;;;5007957;28;20041;-82
2022/06/03 02:17:00;;;;;;;2.75;1.60;;;13.10;99.90;;;;;;5011652;28;20017;-83
2022/06/03 02:19:39;;;;;;;2.60;1.48;;;13.00;99.90;;;;;;5026006;28;20032;-83
2022/06/03 02:22:36;;;;;;;2.65;1.20;;;13.00;99.90;;;;;;5009230;28;20052;-83
2022/06/03 02:25:05;;;;;;;1.98;1.55;;;13.10;99.90;;;;;;5027429;28;20060;-83
2022/06/03 02:28:10;;;;;;;2.88;1.33;;;13.10;99.90;;;;;;5020850;28;20045;-83
2022/06/03 02:30:58;;;;;;;1.58;1.38;;;13.10;99.90;;;;;;5011479;28;20025;-83
2022/06/03 02:33:45;;;;;;;1.98;1.50;;;13.10;99.90;;;;;;5027715;28;20022;-83
2022/06/03 02:36:51;;;;;;;2.25;1.20;;;13.10;99.90;;;;;;5014474;28;20056;-83
2022/06/03 02:39:39;;;;;;;1.80;1.02;;;13.10;99.90;;;;;;5012196;28;20040;-83
2022/06/03 02:42:09;;;;;;;3.67;1.38;;;13.10;99.90;;;;;;5017339;28;20028;-83
2022/06/03 02:45:07;;;;;;;3.42;2.20;;;13.10;99.90;;;;;;5030043;28;20028;-83
2022/06/03 02:47:46;;;;;;;2.33;1.05;;;13.00;99.90;;;;;;5009198;28;20104;-83
2022/06/03 02:50:48;;;;;;;2.25;1.10;;;13.10;99.90;;;;;;5044775;28;20033;-84
2022/06/03 02:53:54;;;;;;;2.20;1.20;;;13.00;99.90;;;;;;5015530;28;20028;-84
2022/06/03 02:56:42;;;;;;;3.80;1.40;;;13.00;99.90;;;;;;5015997;28;20041;-83
2022/06/03 02:59:48;;;;;;;2.78;1.20;;;13.00;99.90;;;;;;4993774;28;20041;-82
2022/06/03 03:02:49;;;;;;;4.40;2.03;;;13.00;99.90;;;;;;5009671;28;20613;-83
2022/06/03 03:05:33;;;;;;;3.25;2.10;;;13.00;99.90;;;;;;5028773;28;20375;-81
2022/06/03 03:08:19;;;;;;;10.52;7.43;;;12.90;99.90;;;;;;4989954;28;20041;-80
2022/06/03 03:11:38;;;;;;;5.03;3.85;;;13.00;99.90;;;;;;5025449;28;20025;-81
2022/06/03 03:14:17;;;;;;;3.40;2.20;;;12.90;99.90;;;;;;5001898;28;20030;-81
2022/06/03 03:17:02;;;;;;;3.30;1.20;;;12.90;99.90;;;;;;5011614;28;22559;-81
2022/06/03 03:19:44;;;;;;;1.77;1.00;;;12.90;99.90;;;;;;5009687;28;20032;-81
2022/06/03 03:22:16;;;;;;;4.10;1.10;;;12.90;99.90;;;;;;5028312;28;20029;-80
2022/06/03 03:25:01;;;;;;;6.10;1.25;;;12.90;99.90;;;;;;5025659;28;20372;-81
2022/06/03 03:28:06;;;;;;;2.72;1.80;;;12.90;99.90;;;;;;5006821;28;20026;-82
2022/06/03 03:31:11;;;;;;;4.47;1.63;;;12.90;99.90;;;;;;5007022;28;20045;-81
2022/06/03 03:34:12;;;;;;;2.47;1.40;;;12.80;99.90;;;;;;5043190;28;20543;-81
2022/06/03 03:36:56;;;;;;;3.10;1.50;;;12.80;99.90;;;;;;5019098;28;20029;-81
2022/06/03 03:39:47;;;;;;;2.05;0.90;;;12.70;99.90;;;;;;5009886;28;20029;-81
2022/06/03 03:42:26;;;;;;;2.65;1.50;;;12.70;99.90;;;;;;5040260;28;20025;-81
2022/06/03 03:45:14;;;;;;;2.70;1.70;;;12.60;99.90;;;;;;5011887;28;20468;-81
2022/06/03 03:47:49;;;;;;;4.07;1.38;;;12.50;99.90;;;;;;5009893;28;20108;-80
2022/06/03 03:50:37;;;;;;;2.03;1.20;;;12.50;99.90;;;;;;5037952;28;20037;-81
2022/06/03 03:53:29;;;;;;;2.55;0.93;;;12.50;99.90;;;;;;4993813;28;20018;-81
2022/06/03 03:56:16;;;;;;;2.72;1.02;;;12.50;99.90;;;;;;5013099;28;20021;-81
2022/06/03 03:59:19;;;;;;;3.63;1.70;;;12.50;99.90;;;;;;5023072;28;20036;-82
2022/06/03 04:02:05;;;;;;;3.05;1.65;;;12.60;99.90;;;;;;5014050;28;20018;-81
2022/06/03 04:04:42;;;;;;;2.65;1.25;;;12.60;99.90;;;;;;4998464;28;20033;-81
2022/06/03 04:07:24;;;;;;;2.40;1.60;;;12.60;99.90;;;;;;5017017;28;20037;-81
2022/06/03 04:10:15;;;;;;;4.88;2.30;;;12.60;99.90;;;;;;5008934;28;20041;-81
2022/06/03 04:13:00;;;;;;;5.28;2.85;;;12.50;99.90;;;;;;4990532;28;20032;-81
2022/06/03 04:15:54;;;;;;;3.60;1.40;;;12.50;99.90;;;;;;4991997;28;20488;-82
2022/06/03 04:18:48;;;;;;;3.25;1.50;;;12.50;99.90;;;;;;4986624;28;20060;-81
2022/06/03 04:22:04;;;;;;;3.10;1.40;;;12.50;99.90;;;;;;4990424;28;20483;-80
2022/06/03 04:24:57;;;;;;;2.63;1.80;;;12.50;99.90;;;;;;4978557;28;20037;-80
2022/06/03 04:27:58;;;;;;;4.18;1.55;;;12.50;99.90;;;;;;4970807;28;20064;-81
2022/06/03 04:30:34;;;;;;;2.90;2.40;;;12.60;99.90;;;;;;4988661;28;20041;-81
2022/06/03 04:33:22;;;;;;;5.10;1.70;;;12.70;99.90;;;;;;5002344;28;20021;-81
2022/06/03 04:35:54;;;;;;;4.72;2.10;;;12.80;99.90;;;;;;4989690;28;20026;-81
2022/06/03 04:39:09;;;;;;;2.20;1.95;;;12.90;99.90;;;;;;4998995;28;20473;-81
2022/06/03 04:41:35;;;;;;;2.53;2.22;;;13.00;99.90;;;;;;4999639;28;20062;-82
2022/06/03 04:44:23;;;;;;;2.78;2.17;;;13.00;99.90;;;;;;5002985;28;20037;-81
2022/06/03 04:47:13;;;;;;;2.92;2.15;;;13.10;99.90;;;;;;5021374;28;20042;-81
2022/06/03 04:49:55;;;;;;;1.92;1.20;;;13.30;99.90;;;;;;4986772;28;20045;-81
2022/06/03 04:52:33;;;;;;;4.80;2.30;;;13.40;99.90;;;;;;4989809;28;20037;-81
2022/06/03 04:55:07;;;;;;;2.40;1.42;;;13.60;99.90;;;;;;5004758;28;20021;-82
2022/06/03 04:58:11;;;;;;;4.70;1.98;;;13.70;99.90;;;;;;4975099;28;20025;-81
2022/06/03 05:01:02;;;;;;;2.92;2.05;;;13.90;99.90;;;;;;4989230;28;20032;-81
2022/06/03 05:04:07;;;;;;;2.47;1.80;;;14.00;99.90;;;;;;4993071;28;20036;-82
2022/06/03 05:06:55;;;;;;;2.90;1.83;;;14.10;99.90;;;;;;5001489;28;20040;-81
2022/06/03 05:09:59;;;;;;;3.25;1.80;;;14.30;99.90;;;;;;5025998;28;20040;-82
2022/06/03 05:12:37;;;;;;;2.83;1.40;;;14.50;99.90;;;;;;5024367;28;20029;-82
2022/06/03 05:15:06;;;;;;;3.58;1.80;;;14.60;99.90;;;;;;5010115;28;20498;-81
2022/06/03 05:17:54;;;;;;;4.28;2.25;;;14.80;99.90;;;;;;5021476;28;20025;-82
2022/06/03 05:20:23;;;;;;;3.67;2.05;;;14.90;99.90;;;;;;4992455;28;20033;-82
2022/06/03 05:23:31;;;;;;;2.78;2.15;;;14.90;99.90;;;;;;5007269;28;20028;-82
2022/06/03 05:26:25;;;;;;;3.47;2.05;;;15.10;99.90;;;;;;4986271;28;20030;-81
2022/06/03 05:29:17;;;;;;;4.72;2.55;;;15.20;99.90;;;;;;5024761;28;20040;-82
2022/06/03 05:32:21;;;;;;;4.10;3.08;;;15.20;99.90;;;;;;5042434;28;20043;-81
2022/06/03 05:34:54;;;;;;;3.00;1.67;;;15.30;99.90;;;;;;4998768;28;20028;-81
2022/06/03 05:37:42;;;;;;;;;;;15.50;99.90;;;;;;5035685;28;20044;-80
2022/06/03 05:40:30;;;;;;;2.65;1.95;;;15.60;99.90;;;;;;5040602;28;20023;-82
2022/06/03 05:43:18;;;;;;;4.75;1.90;;;15.70;99.90;;;;;;5006766;28;20388;-82
2022/06/03 05:45:47;;;;;;;3.85;2.35;;;15.80;99.90;;;;;;5010615;28;20041;-81
2022/06/03 05:48:26;;;;;;;2.15;1.77;;;15.90;99.90;;;;;;5003334;28;20029;-81
2022/06/03 05:51:19;;;;;;;5.15;3.08;;;16.00;99.90;;;;;;5009916;28;20016;-83
2022/06/03 05:54:22;;;;;;;3.75;2.50;;;16.10;99.90;;;;;;5039871;28;20059;-82
2022/06/03 05:56:56;;;;;;;2.40;1.83;;;16.30;99.80;;;;;;5000363;28;20021;-84
2022/06/03 05:59:41;;;;;;;2.67;1.83;;;16.40;99.50;;;;;;5007722;28;20472;-83
2022/06/03 06:02:24;;;;;;;4.35;2.33;;;16.60;99.20;;;;;;5008585;28;20052;-85
2022/06/03 06:05:19;;;;;;;5.65;2.45;;;16.90;98.50;;;;;;5045101;28;20124;-90
2022/06/03 06:08:14;;;;;;;4.93;2.90;;;17.00;97.70;;;;;;5012372;28;20038;-88
2022/06/03 06:11:21;;;;;;;3.80;2.33;;;17.00;97.60;;;;;;5017196;28;20041;-89
2022/06/03 06:14:01;;;;;;;2.65;2.30;;;17.10;97.60;;;;;;4976785;28;20026;-83
2022/06/03 06:17:29;;;;;;;4.43;2.53;;;17.30;97.20;;;;;;5008520;28;20033;-89
2022/06/03 06:20:16;;;;;;;4.50;1.77;;;17.60;96.70;;;;;;4987662;28;20017;-86
2022/06/03 06:22:49;;;;;;;4.38;1.95;;;18.00;96.20;;;;;;5028017;28;20030;-85
2022/06/03 06:25:49;;;;;;;2.35;1.60;;;18.30;95.40;;;;;;5007679;28;20103;-85
2022/06/03 06:28:54;;;;;;;2.45;1.42;;;18.40;95.20;;;;;;4973984;28;20042;-86
2022/06/03 06:32:14;;;;;;;2.53;1.55;;;18.50;95.00;;;;;;5017448;28;20038;-84
2022/06/03 06:35:05;;;;;;;1.92;1.10;;;18.60;94.90;;;;;;4989893;28;20345;-84
2022/06/03 06:38:00;;;;;;;2.28;1.40;;;18.60;94.90;;;;;;5010750;28;20033;-84
2022/06/03 06:40:59;;;;;;;2.60;1.42;;;18.70;94.50;;;;;;4984956;28;20503;-86
2022/06/03 06:43:29;;;;;;;2.03;1.13;;;18.70;94.60;;;;;;5025241;28;20376;-85
2022/06/03 06:46:04;;;;;;;2.88;1.13;;;18.90;94.60;;;;;;4995341;28;20010;-88
2022/06/03 06:48:46;;;;;;;3.20;1.60;;;19.00;94.40;;;;;;5007326;28;20380;-85
2022/06/03 06:51:49;;;;;;;3.00;1.23;;;19.20;94.10;;;;;;5006199;28;20380;-88
2022/06/03 06:54:18;;;;;;;3.97;2.13;;;19.20;93.70;;;;;;5013148;28;20033;-93
2022/06/03 06:56:49;;;;;;;6.70;3.42;;;19.40;93.70;;;;;;4976187;28;20024;-88
2022/06/03 06:59:55;;;;;;;2.90;1.50;;;19.50;93.40;;;;;;4997089;28;20041;-91
2022/06/03 07:02:52;;;;;;;3.28;1.40;;;19.70;93.30;;;;;;4997028;28;20284;-87
2022/06/03 07:05:56;;;;;;;2.38;1.27;;;19.80;93.00;;;;;;4993454;28;20030;-85
2022/06/03 07:08:30;;;;;;;4.05;1.70;;;19.90;92.60;;;;;;4985056;28;20113;-89
2022/06/03 07:33:57;;;;;;;3.15;1.42;;;20.50;91.10;;;;;;4765088;29;20389;-90
2022/06/03 07:37:03;;;;;;;3.10;1.33;;;20.60;90.30;;;;;;4887530;29;20416;-86
2022/06/03 07:40:18;;;;;;;1.98;0.90;;;20.70;90.30;;;;;;4940180;28;20040;-86
2022/06/03 07:56:00;;;;;;;1.48;0.88;;;21.40;88.50;;;;;;4928152;28;19914;-85
2022/06/03 07:59:37;;;;;;;1.98;0.90;;;21.50;86.30;;;;;;4907683;28;20524;-85
2022/06/03 08:11:31;;;;;;;2.35;0.93;;;22.10;85.90;;;;;;4926446;28;20732;-85
2022/06/03 08:15:04;;;;;;;2.67;0.90;;;22.20;84.40;;;;;;4917909;28;20043;-85
2022/06/03 08:17:48;;;;;;;1.48;0.88;;;22.40;84.20;;;;;;4966363;28;20044;-85
2022/06/03 08:20:22;;;;;;;3.13;0.70;;;22.50;82.90;;;;;;5004631;28;20045;-85
2022/06/03 08:23:12;;;;;;;1.95;0.68;;;22.60;83.00;;;;;;5018772;28;20029;-83
2022/06/03 08:25:55;;;;;;;3.22;1.33;;;22.70;83.10;;;;;;4976925;28;20029;-83
2022/06/03 08:29:17;;;;;;;2.35;0.70;;;22.80;81.40;;;;;;5018812;28;20029;-83
2022/06/03 08:36:50;;;;;;;3.30;1.65;;;23.20;81.30;;;;;;4889551;29;20040;-87
2022/06/03 08:39:23;;;;;;;1.75;0.82;;;23.30;80.50;;;;;;4945016;28;20047;-88
2022/06/03 08:42:43;;;;;;;;;;;;;;;;;;;;;
2022/06/03 08:46:20;;;;;;;3.30;0.63;;;23.60;78.80;;;;;;4906368;29;20059;-86
2022/06/03 08:49:02;;;;;;;2.30;0.60;;;23.80;78.50;;;;;;4890093;29;20044;-86
2022/06/03 08:51:54;;;;;;;1.67;0.68;;;23.90;77.20;;;;;;4963424;28;20049;-86
2022/06/03 08:54:44;;;;;;;3.40;0.63;;;23.90;76.90;;;;;;4965388;28;20366;-86
2022/06/03 09:01:33;;;;;;;1.70;0.75;;;24.20;75.50;;;;;;4952190;28;20049;-84
2022/06/03 09:12:10;;;;;;;2.10;1.10;;;24.80;73.80;;;;;;4898338;29;20045;-92
2022/06/03 09:15:11;;;;;;;4.83;1.50;;;25.10;72.40;;;;;;4889457;29;20037;-92
2022/06/03 09:19:15;;;;;;;2.15;1.00;;;25.20;72.50;;;;;;4871989;29;20052;-93
2022/06/03 09:25:31;;;;;;;1.85;0.70;;;25.40;69.70;;;;;;4994336;28;20512;-87
2022/06/03 09:28:04;;;;;;;1.45;0.50;;;25.40;68.30;;;;;;4991480;28;20038;-88
2022/06/03 09:31:01;;;;;;;0.80;0.43;;;25.30;67.50;;;;;;4993271;28;20042;-91
2022/06/03 09:43:24;;;;;;;1.65;0.75;;;25.10;65.90;;;;;;4969547;28;20071;-91
2022/06/03 09:46:35;;;;;;;1.20;0.70;;;25.10;66.20;;;;;;4994543;28;20061;-92
2022/06/03 09:49:09;;;;;;;4.22;0.95;;;25.20;66.40;;;;;;4981519;28;20025;-92
2022/06/03 09:52:20;;;;;;;2.17;0.60;;;25.30;66.60;;;;;;4977383;28;20476;-92
2022/06/03 09:55:27;;;;;;;1.30;0.60;;;25.40;66.10;;;;;;4998353;28;20036;-84
2022/06/03 09:58:02;;;;;;;3.05;0.70;;;25.60;62.60;;;;;;5001426;28;20017;-91
2022/06/03 10:00:45;;;;;;;1.23;0.40;;;25.60;62.60;;;;;;5006653;28;21570;-86
2022/06/03 10:03:21;;;;;;;2.15;0.50;;;25.60;62.20;;;;;;4975664;28;20045;-86
2022/06/03 10:05:56;;;;;;;2.67;1.00;;;25.60;61.40;;;;;;4975249;28;20030;-86
2022/06/03 10:14:41;;;;;;;2.90;0.60;;;25.60;61.60;;;;;;5004784;28;20046;-87
2022/06/03 10:17:37;;;;;;;1.83;0.85;;;25.80;62.00;;;;;;4972186;28;20037;-87
2022/06/03 10:20:23;;;;;;;1.25;0.55;;;25.90;61.10;;;;;;4971847;28;20033;-86
2022/06/03 10:22:49;;;;;;;2.47;0.77;;;25.90;61.10;;;;;;4970573;28;20037;-85
2022/06/03 10:25:20;;;;;;;0.90;0.50;;;26.00;61.10;;;;;;4972144;28;20029;-86
2022/06/03 10:28:39;;;;;;;3.00;0.70;;;26.10;60.20;;;;;;4999091;28;20037;-86
2022/06/03 10:31:46;;;;;;;1.02;0.50;;;26.10;58.20;;;;;;5016563;28;20038;-86
2022/06/03 10:34:39;;;;;;;1.27;0.50;;;25.90;57.80;;;;;;4985751;28;20056;-85
2022/06/03 10:37:31;;;;;;;1.35;0.60;;;25.90;57.90;;;;;;4999256;28;20495;-85
2022/06/03 10:40:18;;;;;;;1.48;0.60;;;26.20;58.30;;;;;;4986457;28;20038;-84
2022/06/03 10:43:08;;;;;;;2.13;0.68;;;26.50;57.00;;;;;;4972763;28;20030;-86
2022/06/03 10:45:46;;;;;;;1.85;0.63;;;26.80;56.50;;;;;;5003254;28;20052;-86
2022/06/03 10:48:35;;;;;;;;;;;;;;;;;;;;;
2022/06/03 11:21:31;;;;;;;1.15;0.45;;;29.70;49.50;;;;;;4911025;28;20042;-84
2022/06/03 11:29:33;;;;;;;0.70;0.43;;;30.40;48.50;;;;;;4848679;29;20539;-84
2022/06/03 11:32:23;;;;;;;;;;;;;;;;;;;;;
2022/06/03 11:35:44;;;;;;;2.45;0.85;;;30.60;46.60;;;;;;4820349;29;20418;-83
2022/06/03 11:38:41;;;;;;;2.55;0.43;;;30.60;45.50;;;;;;4796757;29;20042;-88
2022/06/03 11:41:37;;;;;;;3.55;0.77;;;31.00;45.80;;;;;;4799289;29;20043;-85
2022/06/03 11:44:43;;;;;;;2.65;1.45;;;31.20;46.00;;;;;;4797593;29;20054;-88
2022/06/03 11:51:54;;;;;;;1.30;0.47;;;32.00;44.10;;;;;;4931511;29;20098;-88
2022/06/03 12:08:17;;;;;;;1.33;0.60;;;32.80;41.50;;;;;;4932819;29;20376;-92
2022/06/03 12:15:57;;;;;;;0.90;0.50;;;33.80;41.70;;;;;;4954879;28;20044;-91
2022/06/03 12:26:56;;;;;;;1.50;0.80;;;34.20;39.90;;;;;;4985620;28;20045;-86
2022/06/03 12:29:47;;;;;;;1.45;0.45;;;34.00;39.50;;;;;;4965979;28;20438;-85
2022/06/03 12:40:45;;;;;;;0.60;0.40;;;34.10;38.80;;;;;;4994587;28;20045;-87
2022/06/03 12:43:57;;;;;;;0.80;0.40;;;34.20;39.00;;;;;;4999536;28;20040;-86
2022/06/03 12:46:47;;;;;;;2.28;1.30;;;34.70;39.10;;;;;;4985128;28;20053;-87
2022/06/03 12:49:36;;;;;;;3.17;2.55;;;34.60;39.00;;;;;;5021251;28;20040;-89
2022/06/03 12:52:37;;;;;;;1.75;0.90;;;34.50;38.90;;;;;;4984659;28;20033;-92
2022/06/03 13:09:48;;;;;;;1.50;0.30;;;34.40;38.80;;;;;;4967289;28;20058;-91
2022/06/03 13:20:41;;;;;;;1.98;0.50;;;35.80;37.20;;;;;;4907523;29;20046;-91
2022/06/03 13:24:02;;;;;;;1.02;0.60;;;35.40;36.80;;;;;;4916337;29;20402;-90
2022/06/03 13:27:54;;;;;;;1.20;0.50;;;35.30;36.70;;;;;;4923877;28;20066;-90
2022/06/03 13:44:26;;;;;;;0.98;0.43;;;34.40;37.40;;;;;;4830960;29;20306;-89
2022/06/03 13:48:56;;;;;;;1.42;0.40;;;35.10;36.70;;;;;;4827645;29;20045;-86
2022/06/03 13:53:37;;;;;;;;;;;;;;;;;;;;;
2022/06/03 14:05:58;;;;;;;;;;;;;;;;;;;;;
2022/06/03 14:24:00;;;;;;;3.50;0.50;;;33.90;38.10;;;;;;4789982;29;20057;-90
2022/06/03 14:27:25;;;;;;;1.27;0.45;;;34.00;38.20;;;;;;4806483;29;20553;-90
2022/06/03 14:30:14;;;;;;;8.98;0.75;;;33.70;38.50;;;;;;4872471;29;20055;-88
2022/06/03 14:32:50;;;;;;;1.20;0.30;;;32.80;39.20;;;;;;5004733;28;20052;-91
2022/06/03 14:35:38;;;;;;;11.57;1.08;;;32.40;39.40;;;;;;4982370;28;20029;-91
2022/06/03 14:38:49;;;;;;;1.00;0.57;;;32.20;39.90;;;;;;5006765;28;20105;-93
2022/06/03 14:41:29;;;;;;;2.25;0.40;;;31.90;40.00;;;;;;5022451;28;20037;-96
2022/06/03 14:44:03;;;;;;;2.38;0.30;;;32.20;39.60;;;;;;5001222;28;20400;-92
2022/06/03 15:00:20;;;;;;;0.85;0.30;;;35.20;36.90;;;;;;4951092;28;20035;-90
2022/06/03 15:04:31;;;;;;;;;;;;;;;;;;;;;
2022/06/03 15:16:59;;;;;;;0.88;0.50;;;37.20;34.20;;;;;;4882015;29;20396;-89
2022/06/03 15:19:52;;;;;;;2.33;0.60;;;37.20;34.00;;;;;;4873274;28;20044;-84
2022/06/03 15:27:46;;;;;;;1.48;0.60;;;37.30;33.80;;;;;;4946450;28;20035;-88
2022/06/03 15:31:31;;;;;;;2.05;0.60;;;37.20;34.00;;;;;;4879991;29;20986;-93
2022/06/03 15:34:20;;;;;;;0.95;0.60;;;36.90;34.00;;;;;;4887844;29;20039;-88
2022/06/03 15:37:08;;;;;;;1.25;0.60;;;36.30;34.50;;;;;;4888070;29;20037;-88
2022/06/03 15:45:03;;;;;;;;;;;;;;;;;;;;;
2022/06/03 15:53:51;;;;;;;;;;;;;;;;;;;;;
2022/06/03 15:57:39;;;;;;;2.05;0.43;;;34.80;35.30;;;;;;4882424;29;20042;-92
2022/06/03 16:06:01;;;;;;;0.77;0.40;;;31.90;38.00;;;;;;4857410;29;20052;-88
2022/06/03 16:08:54;;;;;;;1.45;0.40;;;30.40;39.60;;;;;;4920131;28;20047;-87
2022/06/03 16:12:23;;;;;;;1.45;0.40;;;29.30;40.50;;;;;;5000673;28;20049;-86
2022/06/03 16:19:12;;;;;;;1.33;0.40;;;28.10;42.40;;;;;;5021911;28;20045;-88
2022/06/03 16:27:40;;;;;;;;;;;;;;;;;;;;;
2022/06/03 16:31:50;;;;;;;1.45;0.40;;;26.70;44.10;;;;;;5032329;28;20069;-87
2022/06/03 16:43:58;;;;;;;1.25;0.30;;;26.20;45.00;;;;;;4909834;29;20055;-89
2022/06/03 16:47:05;;;;;;;1.27;0.40;;;26.10;45.30;;;;;;4997351;28;20046;-88
2022/06/03 16:50:01;;;;;;;2.92;0.40;;;25.90;45.80;;;;;;4982252;28;20058;-89
2022/06/03 16:53:11;;;;;;;1.95;0.40;;;25.80;46.10;;;;;;5001152;28;20041;-88
2022/06/03 16:55:50;;;;;;;1.67;0.60;;;25.80;46.30;;;;;;4969560;28;20644;-88
2022/06/03 16:58:24;;;;;;;1.05;0.50;;;25.70;46.50;;;;;;4979281;28;20048;-90
2022/06/03 17:01:12;;;;;;;;;;;;;;;;;;;;;
2022/06/03 17:12:15;;;;;;;1.35;0.70;;;25.40;47.30;;;;;;4927201;28;20039;-85
2022/06/03 17:14:52;;;;;;;1.10;0.60;;;25.40;47.30;;;;;;4887673;28;20052;-84
2022/06/03 17:17:28;;;;;;;1.90;0.52;;;25.40;47.30;;;;;;4994330;28;20041;-82
2022/06/03 17:20:13;;;;;;;2.60;0.50;;;25.50;47.50;;;;;;5002368;28;20517;-84
2022/06/03 17:23:32;;;;;;;2.03;0.40;;;25.40;48.40;;;;;;4974493;28;20377;-87
2022/06/03 17:26:30;;;;;;;0.88;0.40;;;25.50;48.00;;;;;;4987650;28;20046;-85
2022/06/03 17:29:37;;;;;;;0.90;0.50;;;25.40;48.20;;;;;;4973624;28;20026;-86
2022/06/03 17:32:23;;;;;;;2.85;0.65;;;25.30;48.20;;;;;;4999755;28;20196;-88
2022/06/03 17:35:36;;;;;;;4.75;0.60;;;25.20;48.60;;;;;;5007598;28;20040;-84
2022/06/03 17:39:18;;;;;;;1.83;0.70;;;25.00;49.10;;;;;;5010007;28;20030;-86
2022/06/03 17:42:45;;;;;;;;;;;;;;;;;;;;;
2022/06/03 17:46:30;;;;;;;2.55;0.60;;;24.60;49.60;;;;;;5007317;28;20044;-87
2022/06/03 17:58:18;;;;;;;3.22;0.50;;;24.50;50.60;;;;;;4929940;28;20043;-85
2022/06/03 18:05:25;;;;;;;1.67;0.70;;;24.30;50.90;;;;;;4886257;29;20040;-84
2022/06/03 18:08:19;;;;;;;1.63;0.70;;;24.20;51.10;;;;;;4980139;28;20050;-85
2022/06/03 18:10:46;;;;;;;3.30;0.50;;;24.20;51.60;;;;;;4992697;28;20525;-92
2022/06/03 18:13:14;;;;;;;1.00;0.40;;;24.10;52.00;;;;;;4927711;28;20058;-93
2022/06/03 18:16:32;;;;;;;3.22;0.40;;;24.00;52.30;;;;;;4976339;28;20038;-93
2022/06/03 18:19:22;;;;;;;1.33;0.40;;;23.90;52.30;;;;;;4921177;28;20049;-94
2022/06/03 18:22:20;;;;;;;1.75;0.50;;;23.80;52.60;;;;;;4993647;28;20485;-93
2022/06/03 18:24:50;;;;;;;1.73;0.40;;;23.80;52.90;;;;;;4980999;28;20049;-93
2022/06/03 18:27:59;;;;;;;2.92;0.40;;;23.70;53.20;;;;;;5002690;28;20164;-88
2022/06/03 18:35:37;;;;;;;1.33;0.50;;;23.40;53.90;;;;;;4984310;28;20046;-93
2022/06/03 18:39:38;;;;;;;2.63;0.40;;;23.30;54.90;;;;;;4937762;28;20043;-91
2022/06/03 18:47:15;;;;;;;;;;;;;;;;;;;;;
2022/06/03 18:50:47;;;;;;;;;;;;;;;;;;;;;
2022/06/03 19:06:56;;;;;;;1.58;0.50;;;22.30;57.90;;;;;;4875199;29;20055;-90
2022/06/03 19:13:27;;;;;;;0.98;0.40;;;22.00;58.80;;;;;;4859987;29;20053;-88
2022/06/03 19:17:34;;;;;;;1.42;0.43;;;21.90;59.20;;;;;;4855993;29;20037;-88
2022/06/03 19:22:03;;;;;;;2.42;0.55;;;21.80;59.60;;;;;;4927373;28;20051;-90
2022/06/03 19:25:09;;;;;;;3.63;0.60;;;21.70;60.30;;;;;;4889890;28;20058;-88
2022/06/03 19:27:49;;;;;;;1.13;0.40;;;21.40;60.90;;;;;;4942042;28;20742;-88
2022/06/03 19:30:27;;;;;;;2.08;0.77;;;21.20;61.20;;;;;;4985516;28;20029;-89
2022/06/03 19:33:21;;;;;;;2.80;0.30;;;21.10;61.50;;;;;;5012740;28;20045;-87
2022/06/03 19:36:18;;;;;;;1.95;0.40;;;20.90;61.70;;;;;;4995753;28;20037;-88
2022/06/03 19:39:54;;;;;;;5.78;0.55;;;20.80;61.90;;;;;;5005879;28;20029;-89
2022/06/03 19:43:37;;;;;;;7.90;0.60;;;20.70;62.30;;;;;;4987664;28;20034;-87
2022/06/03 19:46:25;;;;;;;3.25;0.47;;;20.50;62.70;;;;;;4992299;28;20481;-86
2022/06/03 19:49:23;;;;;;;10.35;3.80;;;20.40;62.90;;;;;;5014779;28;20032;-87
2022/06/03 19:52:28;;;;;;;3.35;0.80;;;20.20;63.10;;;;;;5034647;28;20049;-85
2022/06/03 19:55:16;;;;;;;2.40;0.65;;;20.20;63.30;;;;;;5020047;28;20049;-89
2022/06/03 19:58:02;;;;;;;4.15;0.73;;;20.10;63.40;;;;;;5021406;28;20032;-88
2022/06/03 20:00:42;;;;;;;3.40;0.40;;;19.90;63.70;;;;;;5009325;28;20037;-88
2022/06/03 20:03:25;;;;;;;5.20;2.92;;;19.90;64.00;;;;;;5024037;28;20048;-86
2022/06/03 20:06:07;;;;;;;3.15;0.50;;;19.80;64.10;;;;;;5023642;28;20037;-85
2022/06/03 20:09:01;;;;;;;4.45;0.40;;;19.70;64.10;;;;;;5038611;28;20095;-85
2022/06/03 20:14:49;;;;;;;3.85;0.80;;;19.60;64.70;;;;;;5038935;28;20025;-85
2022/06/03 20:17:34;;;;;;;16.13;7.03;;;19.50;64.80;;;;;;5018614;28;20021;-86
2022/06/03 20:20:09;;;;;;;11.35;2.80;;;19.50;65.10;;;;;;4998628;28;20061;-86
2022/06/03 20:22:42;;;;;;;5.45;2.17;;;19.40;65.30;;;;;;5017157;28;20040;-86
2022/06/03 20:25:12;;;;;;;;;;;19.40;65.40;;;;;;5018221;28;20408;-86
2022/06/03 20:28:00;;;;;;;1.40;0.40;;;19.30;65.50;;;;;;4985449;28;19955;-86
2022/06/03 20:30:34;;;;;;;1.20;0.40;;;19.20;65.90;;;;;;5018249;28;20037;-88
2022/06/03 20:33:32;;;;;;;1.55;0.40;;;19.10;66.00;;;;;;5020536;28;20041;-90
2022/06/03 20:36:44;;;;;;;2.28;0.40;;;19.10;66.10;;;;;;5024489;28;20472;-85
2022/06/03 20:39:36;;;;;;;1.40;0.45;;;19.10;66.40;;;;;;4986231;28;20041;-85
2022/06/03 20:42:30;;;;;;;;;;;19.00;66.30;;;;;;5000774;28;20037;-90
2022/06/03 20:45:18;;;;;;;;;;;;;;;;;;;;;
2022/06/03 20:48:51;;;;;;;;;;;;;;;;;;;;;
2022/06/03 20:51:54;;;;;;;;;;;;;;;;;;;;;
2022/06/03 20:58:40;;;;;;;21.48;14.32;;;18.70;67.50;;;;;;4935513;28;20382;-88
2022/06/03 21:01:26;;;;;;;2.75;1.33;;;18.60;67.80;;;;;;5006285;28;20037;-88